Time;durP1;ratioP1;P1;durP2;ratioP2;P2;SDS_P1;SDS_P2;PMS_P1;PMS_P2;Temp;Humidity;BMP_temperature;BMP_pressure;BME280_temperature;BME280_humidity;BME280_pressure;Samples;Min_cycle;Max_cycle;Signal;HPM_P1;HPM_P2
2021/12/15 00:02:24;;;;;;;;;;;3.60;99.90;;;;;;5074879;28;19925;-48
2021/12/15 00:04:53;;;;;;;;;;;3.70;99.90;;;;;;5057919;28;20024;-46
2021/12/15 00:07:21;;;;;;;;;;;3.80;99.90;;;;;;5054988;28;19925;-46
2021/12/15 00:09:48;;;;;;;;;;;3.80;99.90;;;;;;5055151;28;20390;-46
2021/12/15 00:12:16;;;;;;;;;;;3.80;99.90;;;;;;5054713;28;19978;-48
2021/12/15 00:14:44;;;;;;;;;;;3.70;99.90;;;;;;5055030;28;19925;-47
2021/12/15 00:17:10;;;;;;;;;;;3.70;99.90;;;;;;5068095;28;20573;-46
2021/12/15 00:19:38;;;;;;;;;;;3.80;99.90;;;;;;5074278;28;19932;-47
2021/12/15 00:22:05;;;;;;;;;;;3.80;99.90;;;;;;5074436;28;19932;-47
2021/12/15 00:24:32;;;;;;;;;;;3.60;99.90;;;;;;5074183;28;19925;-47
2021/12/15 00:26:59;;;;;;;;;;;3.70;99.90;;;;;;5074967;28;19924;-47
2021/12/15 00:29:27;;;;;;;;;;;3.70;99.90;;;;;;5074825;28;19978;-47
2021/12/15 00:31:54;;;;;;;;;;;3.50;99.90;;;;;;5066767;28;19924;-47
2021/12/15 00:34:21;;;;;;;;;;;3.50;99.90;;;;;;5054524;28;20383;-47
2021/12/15 00:36:48;;;;;;;;;;;3.50;99.90;;;;;;5054705;28;19925;-47
2021/12/15 00:39:17;;;;;;;;;;;3.60;99.90;;;;;;5054921;28;19924;-47
2021/12/15 00:41:44;;;;;;;;;;;3.60;99.90;;;;;;5054186;28;19925;-48
2021/12/15 00:44:11;;;;;;;;;;;3.70;99.90;;;;;;5054466;28;19929;-46
2021/12/15 00:46:39;;;;;;;;;;;3.70;99.90;;;;;;5054354;28;19928;-48
2021/12/15 00:49:07;;;;;;;;;;;3.70;99.90;;;;;;5063238;28;20378;-46
2021/12/15 00:51:34;;;;;;;;;;;3.70;99.90;;;;;;5071915;28;19998;-47
2021/12/15 00:54:00;;;;;;;;;;;3.80;99.90;;;;;;5074470;28;19978;-46
2021/12/15 00:56:27;;;;;;;;;;;3.80;99.90;;;;;;5064806;28;19990;-46
2021/12/15 00:58:54;;;;;;;;;;;3.70;99.90;;;;;;5074092;28;19925;-46
2021/12/15 01:01:23;;;;;;;;;;;3.70;99.90;;;;;;5076780;28;20398;-47
2021/12/15 01:03:51;;;;;;;;;;;3.60;99.90;;;;;;5073987;28;19975;-48
2021/12/15 01:06:20;;;;;;;;;;;3.70;99.90;;;;;;5063646;28;19979;-49
2021/12/15 01:08:52;;;;;;;;;;;3.70;99.90;;;;;;5073673;28;19946;-46
2021/12/15 01:11:25;;;;;;;;;;;3.70;99.90;;;;;;5053649;28;19931;-47
2021/12/15 01:22:11;;;;;;;;;;;3.70;99.90;;;;;;5062297;28;20551;-47
2021/12/15 01:24:38;;;;;;;;;;;3.80;99.90;;;;;;5073598;28;19982;-46
2021/12/15 01:27:05;;;;;;;;;;;3.90;99.90;;;;;;5070708;28;19925;-47
2021/12/15 01:29:31;;;;;;;;;;;3.80;99.90;;;;;;5063704;28;19929;-47
2021/12/15 01:31:58;;;;;;;;;;;3.80;99.90;;;;;;5071105;28;19978;-47
2021/12/15 01:34:29;;;;;;;;;;;3.90;99.90;;;;;;5073414;28;19982;-47
2021/12/15 01:36:57;;;;;;;;;;;3.80;99.90;;;;;;5072343;28;19924;-48
2021/12/15 01:39:24;;;;;;;;;;;3.60;99.90;;;;;;5068107;28;19931;-47
2021/12/15 01:41:54;;;;;;;;;;;3.40;99.90;;;;;;5068746;28;19925;-48
2021/12/15 01:47:03;;;;;;;;;;;3.50;99.90;;;;;;5018579;28;19933;-47
2021/12/15 01:49:37;;;;;;;;;;;3.60;99.90;;;;;;5052973;28;19972;-46
2021/12/15 01:52:06;;;;;;;;;;;3.40;99.90;;;;;;5061193;28;19971;-47
2021/12/15 01:54:34;;;;;;;;;;;3.70;99.90;;;;;;5072900;28;19925;-47
2021/12/15 01:57:01;;;;;;;;;;;3.50;99.90;;;;;;5054242;28;19936;-47
2021/12/15 01:59:29;;;;;;;;;;;3.50;99.90;;;;;;5070409;28;19928;-46
2021/12/15 02:01:55;;;;;;;;;;;3.40;99.90;;;;;;5072580;28;19977;-47
2021/12/15 02:04:22;;;;;;;;;;;3.50;99.90;;;;;;5073106;28;19954;-47
2021/12/15 02:06:51;;;;;;;;;;;3.60;99.90;;;;;;5070954;28;19971;-47
2021/12/15 02:09:29;;;;;;;;;;;3.60;99.90;;;;;;5072506;28;19993;-47
2021/12/15 02:11:55;;;;;;;;;;;3.60;99.90;;;;;;5071421;28;19931;-47
2021/12/15 02:14:22;;;;;;;;;;;3.40;99.90;;;;;;5070984;28;19928;-46
2021/12/15 02:16:49;;;;;;;;;;;3.40;99.90;;;;;;5073025;28;19924;-47
2021/12/15 02:19:16;;;;;;;;;;;3.40;99.90;;;;;;5072701;28;19924;-46
2021/12/15 02:21:44;;;;;;;;;;;3.50;99.90;;;;;;5058342;28;20394;-47
2021/12/15 02:24:11;;;;;;;;;;;3.60;99.90;;;;;;5052775;28;19925;-47
2021/12/15 02:26:44;;;;;;;;;;;3.70;99.90;;;;;;5053558;28;19924;-47
2021/12/15 02:29:16;;;;;;;;;;;3.70;99.90;;;;;;5053530;28;20406;-48
2021/12/15 02:31:55;;;;;;;;;;;3.60;99.90;;;;;;5053196;28;19936;-47
2021/12/15 02:34:43;;;;;;;;;;;3.60;99.90;;;;;;5052420;28;19929;-46
2021/12/15 02:37:17;;;;;;;;;;;3.60;99.90;;;;;;5072162;28;19924;-46
2021/12/15 02:39:45;;;;;;;;;;;3.80;99.90;;;;;;5069187;28;20395;-47
2021/12/15 02:42:12;;;;;;;;;;;3.60;99.90;;;;;;5071702;28;20397;-47
2021/12/15 02:44:43;;;;;;;;;;;3.70;99.90;;;;;;5071483;28;19924;-47
2021/12/15 02:47:10;;;;;;;;;;;3.70;99.90;;;;;;5066145;28;19925;-48
2021/12/15 02:49:36;;;;;;;;;;;3.70;99.90;;;;;;5071247;28;19929;-47
2021/12/15 02:52:04;;;;;;;;;;;3.70;99.90;;;;;;5070500;28;19932;-47
2021/12/15 02:54:32;;;;;;;;;;;3.70;99.90;;;;;;5071919;28;19931;-47
2021/12/15 02:57:05;;;;;;;;;;;3.70;99.90;;;;;;5072102;28;20306;-47
2021/12/15 02:59:41;;;;;;;;;;;3.70;99.90;;;;;;5071386;28;19956;-47
2021/12/15 03:02:17;;;;;;;;;;;3.70;99.90;;;;;;5052654;28;20408;-47
2021/12/15 03:04:48;;;;;;;;;;;3.70;99.90;;;;;;5051969;28;19975;-48
2021/12/15 03:07:24;;;;;;;;;;;3.70;99.90;;;;;;5053167;28;20275;-47
2021/12/15 03:18:00;;;;;;;;;;;3.60;99.90;;;;;;5068151;28;20301;-46
2021/12/15 03:20:27;;;;;;;;;;;3.60;99.90;;;;;;5064474;28;19928;-47
2021/12/15 03:22:54;;;;;;;;;;;3.60;99.90;;;;;;5075567;28;19924;-47
2021/12/15 03:25:24;;;;;;;;;;;3.50;99.90;;;;;;5073926;28;19932;-47
2021/12/15 03:33:39;;;;;;;;;;;3.50;99.90;;;;;;5059008;28;19943;-47
2021/12/15 03:36:12;;;;;;;;;;;3.40;99.90;;;;;;5075546;28;19924;-47
2021/12/15 03:38:40;;;;;;;;;;;3.30;99.90;;;;;;5073491;28;19972;-47
2021/12/15 03:41:09;;;;;;;;;;;3.30;99.90;;;;;;5075302;28;19932;-47
2021/12/15 03:43:36;;;;;;;;;;;3.20;99.90;;;;;;5075252;28;19924;-47
2021/12/15 03:46:04;;;;;;;;;;;3.20;99.90;;;;;;5074041;28;20347;-48
2021/12/15 03:48:32;;;;;;;;;;;3.30;99.90;;;;;;5055101;28;20463;-48
2021/12/15 03:51:00;;;;;;;;;;;3.30;99.90;;;;;;5055723;28;20447;-48
2021/12/15 03:53:29;;;;;;;;;;;3.20;99.90;;;;;;5054784;28;20487;-48
2021/12/15 03:55:56;;;;;;;;;;;3.30;99.90;;;;;;5054995;28;19924;-47
2021/12/15 03:58:25;;;;;;;;;;;3.40;99.90;;;;;;5054925;28;19929;-47
2021/12/15 04:00:56;;;;;;;;;;;3.30;99.90;;;;;;5055682;28;19929;-46
2021/12/15 04:03:23;;;;;;;;;;;3.40;99.90;;;;;;5055846;28;20472;-46
2021/12/15 04:05:51;;;;;;;;;;;3.30;99.90;;;;;;5065996;28;19925;-47
2021/12/15 04:08:17;;;;;;;;;;;3.30;99.90;;;;;;5074043;28;20322;-48
2021/12/15 04:10:44;;;;;;;;;;;3.20;99.90;;;;;;5074302;28;19931;-46
2021/12/15 04:13:13;;;;;;;;;;;3.10;99.90;;;;;;5073287;28;19940;-48
2021/12/15 04:15:52;;;;;;;;;;;3.20;99.90;;;;;;5074860;28;19931;-47
2021/12/15 04:18:18;;;;;;;;;;;3.30;99.90;;;;;;5071787;28;19925;-46
2021/12/15 04:20:48;;;;;;;;;;;3.20;99.90;;;;;;5058420;28;19928;-47
2021/12/15 04:23:19;;;;;;;;;;;3.30;99.90;;;;;;5056551;28;19943;-47
2021/12/15 04:25:47;;;;;;;;;;;3.20;99.90;;;;;;5061505;28;19931;-45
2021/12/15 04:28:16;;;;;;;;;;;3.30;99.90;;;;;;5070951;28;19931;-47
2021/12/15 04:30:47;;;;;;;;;;;3.40;99.90;;;;;;5074392;28;19932;-47
2021/12/15 04:33:15;;;;;;;;;;;3.40;99.90;;;;;;5064185;28;19931;-50
2021/12/15 04:35:43;;;;;;;;;;;3.30;99.90;;;;;;5066880;28;19924;-47
2021/12/15 04:38:10;;;;;;;;;;;3.30;99.90;;;;;;5060547;28;19976;-47
2021/12/15 04:40:38;;;;;;;;;;;3.20;99.90;;;;;;5053121;28;19932;-46
2021/12/15 04:43:05;;;;;;;;;;;3.40;99.90;;;;;;5059629;28;20440;-47
2021/12/15 04:45:31;;;;;;;;;;;3.30;99.90;;;;;;5068597;28;19928;-47
2021/12/15 04:48:00;;;;;;;;;;;3.20;99.90;;;;;;5061207;28;19925;-47
2021/12/15 04:50:28;;;;;;;;;;;3.10;99.90;;;;;;5054191;28;20386;-47
2021/12/15 04:52:59;;;;;;;;;;;3.10;99.90;;;;;;5054206;28;19929;-47
2021/12/15 04:55:27;;;;;;;;;;;3.10;99.90;;;;;;5054333;28;20023;-46
2021/12/15 04:57:54;;;;;;;;;;;3.10;99.90;;;;;;5065837;28;19971;-47
2021/12/15 05:00:22;;;;;;;;;;;3.30;99.90;;;;;;5074218;28;19932;-47
2021/12/15 05:02:52;;;;;;;;;;;3.10;99.90;;;;;;5072634;28;19924;-47
2021/12/15 05:05:20;;;;;;;;;;;3.00;99.90;;;;;;5074027;28;19928;-46
2021/12/15 05:07:47;;;;;;;;;;;3.00;99.90;;;;;;5072551;28;19952;-47
2021/12/15 05:10:14;;;;;;;;;;;3.10;99.90;;;;;;5073912;28;19974;-48
2021/12/15 05:12:42;;;;;;;;;;;3.20;99.90;;;;;;5060870;28;19932;-48
2021/12/15 05:15:09;;;;;;;;;;;3.30;99.90;;;;;;5063839;28;20340;-48
2021/12/15 05:17:36;;;;;;;;;;;3.50;99.90;;;;;;5073633;28;19924;-47
2021/12/15 05:20:05;;;;;;;;;;;3.40;99.90;;;;;;5073744;28;19925;-47
2021/12/15 05:22:33;;;;;;;;;;;3.40;99.90;;;;;;5073051;28;19943;-46
2021/12/15 05:25:00;;;;;;;;;;;3.20;99.90;;;;;;5072038;28;19924;-47
2021/12/15 05:27:27;;;;;;;;;;;3.20;99.90;;;;;;5071045;28;20585;-46
2021/12/15 05:29:54;;;;;;;;;;;3.20;99.90;;;;;;5071450;28;19928;-46
2021/12/15 05:32:22;;;;;;;;;;;3.20;99.90;;;;;;5054167;28;20294;-45
2021/12/15 05:34:50;;;;;;;;;;;3.30;99.90;;;;;;5053707;28;19925;-45
2021/12/15 05:37:17;;;;;;;;;;;3.10;99.90;;;;;;5070917;28;19925;-45
2021/12/15 05:39:47;;;;;;;;;;;3.30;99.90;;;;;;5072977;28;20409;-45
2021/12/15 05:42:13;;;;;;;;;;;3.00;99.90;;;;;;5072648;28;19974;-44
2021/12/15 05:44:40;;;;;;;;;;;3.00;99.90;;;;;;5072445;28;19931;-44
2021/12/15 05:47:08;;;;;;;;;;;3.00;99.90;;;;;;5069346;28;20460;-44
2021/12/15 05:49:35;;;;;;;;;;;3.10;99.90;;;;;;5069347;28;20262;-45
2021/12/15 05:52:03;;;;;;;;;;;3.10;99.90;;;;;;5017295;22;2207657;-50
2021/12/15 05:54:30;;;;;;;;;;;3.10;99.90;;;;;;5069759;28;20447;-50
2021/12/15 05:56:59;;;;;;;;;;;3.10;99.90;;;;;;5073864;28;19924;-50
2021/12/15 05:59:26;;;;;;;;;;;3.10;99.90;;;;;;5066631;28;20309;-52
2021/12/15 06:01:53;;;;;;;;;;;2.90;99.90;;;;;;5072862;28;20386;-49
2021/12/15 06:04:20;;;;;;;;;;;2.80;99.90;;;;;;5072990;28;20468;-52
2021/12/15 06:06:48;;;;;;;;;;;2.90;99.90;;;;;;5067066;28;19925;-50
2021/12/15 06:09:15;;;;;;;;;;;3.10;99.90;;;;;;5066445;28;19924;-49
2021/12/15 06:11:43;;;;;;;;;;;2.90;99.90;;;;;;5072734;28;19970;-50
2021/12/15 06:14:12;;;;;;;;;;;2.80;99.90;;;;;;5071160;28;19959;-53
2021/12/15 06:16:39;;;;;;;;;;;2.80;99.90;;;;;;5066136;28;19931;-51
2021/12/15 06:19:06;;;;;;;;;;;2.90;99.90;;;;;;5067304;28;19928;-50
2021/12/15 06:21:33;;;;;;;;;;;2.90;99.90;;;;;;5081930;28;19963;-51
2021/12/15 06:23:59;;;;;;;;;;;3.10;99.90;;;;;;5085921;28;20294;-50
2021/12/15 06:26:26;;;;;;;;;;;2.90;99.90;;;;;;5085606;28;19928;-49
2021/12/15 06:28:53;;;;;;;;;;;2.90;99.90;;;;;;5072738;28;19924;-51
2021/12/15 06:31:21;;;;;;;;;;;2.80;99.90;;;;;;5072272;28;19981;-49
2021/12/15 06:33:48;;;;;;;;;;;2.90;99.90;;;;;;5070059;28;20386;-51
2021/12/15 06:36:20;;;;;;;;;;;2.90;99.90;;;;;;5072136;28;19924;-50
2021/12/15 06:38:48;;;;;;;;;;;2.90;99.90;;;;;;5072767;28;20016;-51
2021/12/15 06:41:15;;;;;;;;;;;3.00;99.90;;;;;;5072342;28;20445;-53
2021/12/15 06:43:44;;;;;;;;;;;3.00;99.90;;;;;;5072457;28;20340;-50
2021/12/15 06:46:31;;;;;;;;;;;3.10;99.90;;;;;;5068419;28;20590;-50
2021/12/15 06:57:31;;;;;;;;;;;3.00;99.90;;;;;;5072217;28;19928;-51
2021/12/15 06:59:58;;;;;;;;;;;2.90;99.90;;;;;;5072303;28;19928;-50
2021/12/15 07:02:24;;;;;;;;;;;3.30;99.90;;;;;;5072088;28;19986;-50
2021/12/15 07:04:53;;;;;;;;;;;3.20;99.90;;;;;;5071794;28;19925;-52
2021/12/15 07:07:20;;;;;;;;;;;3.20;99.90;;;;;;5059712;28;19929;-52
2021/12/15 07:09:46;;;;;;;;;;;3.10;99.90;;;;;;5056250;28;19924;-50
2021/12/15 07:12:13;;;;;;;;;;;3.20;99.90;;;;;;5072248;28;19933;-49
2021/12/15 07:14:40;;;;;;;;;;;3.10;99.90;;;;;;5069767;28;19928;-51
2021/12/15 07:17:11;;;;;;;;;;;3.10;99.90;;;;;;5066840;28;19931;-50
2021/12/15 07:20:02;;;;;;;;;;;3.20;99.90;;;;;;5071689;28;20390;-50
2021/12/15 07:22:32;;;;;;;;;;;3.10;99.90;;;;;;5056715;28;19932;-50
2021/12/15 07:24:59;;;;;;;;;;;3.10;99.90;;;;;;5068974;28;20358;-50
2021/12/15 07:27:26;;;;;;;;;;;3.10;99.90;;;;;;5070228;28;19936;-50
2021/12/15 07:29:53;;;;;;;;;;;3.20;99.90;;;;;;5070663;28;20374;-51
2021/12/15 07:32:20;;;;;;;;;;;3.20;99.90;;;;;;5071796;28;19924;-50
2021/12/15 07:34:46;;;;;;;;;;;3.30;99.90;;;;;;5071804;28;20007;-51
2021/12/15 07:37:13;;;;;;;;;;;3.30;99.90;;;;;;5062075;28;19925;-51
2021/12/15 07:39:53;;;;;;;;;;;3.20;99.90;;;;;;5051924;28;19932;-51
2021/12/15 07:42:29;;;;;;;;;;;3.10;99.90;;;;;;5066850;28;19924;-51
2021/12/15 07:44:56;;;;;;;;;;;3.00;99.90;;;;;;5065593;28;19986;-52
2021/12/15 07:47:23;;;;;;;;;;;2.90;99.90;;;;;;5069774;28;19925;-51
2021/12/15 07:49:50;;;;;;;;;;;3.10;99.90;;;;;;5058570;28;19925;-50
2021/12/15 07:52:16;;;;;;;;;;;3.10;99.90;;;;;;5057022;28;20058;-51
2021/12/15 07:54:45;;;;;;;;;;;3.10;99.90;;;;;;5071911;28;19928;-51
2021/12/15 07:57:17;;;;;;;;;;;3.20;99.90;;;;;;5071967;28;19932;-50
2021/12/15 07:59:44;;;;;;;;;;;3.20;99.90;;;;;;5070713;28;20439;-51
2021/12/15 08:02:11;;;;;;;;;;;3.20;99.90;;;;;;5069402;28;19924;-51
2021/12/15 08:04:38;;;;;;;;;;;3.10;99.90;;;;;;5071499;28;19977;-49
2021/12/15 08:07:05;;;;;;;;;;;3.10;99.90;;;;;;5075442;28;20024;-51
2021/12/15 08:09:32;;;;;;;;;;;3.10;99.90;;;;;;5075266;28;19928;-50
2021/12/15 08:12:00;;;;;;;;;;;3.10;99.90;;;;;;5067647;28;19928;-51
2021/12/15 08:14:27;;;;;;;;;;;3.10;99.90;;;;;;5071748;28;20324;-51
2021/12/15 08:16:54;;;;;;;;;;;3.20;99.90;;;;;;5074646;28;19993;-50
2021/12/15 08:19:21;;;;;;;;;;;3.20;99.90;;;;;;5071968;28;20433;-51
2021/12/15 08:21:48;;;;;;;;;;;3.10;99.90;;;;;;5073099;28;20394;-50
2021/12/15 08:24:15;;;;;;;;;;;3.00;99.90;;;;;;5073314;28;19925;-51
2021/12/15 08:26:42;;;;;;;;;;;3.00;99.90;;;;;;5073457;28;19985;-50
2021/12/15 08:29:11;;;;;;;;;;;3.10;99.90;;;;;;5073880;28;19980;-49
2021/12/15 08:31:38;;;;;;;;;;;3.10;99.90;;;;;;5067110;28;20368;-51
2021/12/15 08:34:07;;;;;;;;;;;3.00;99.90;;;;;;5072590;28;19928;-50
2021/12/15 08:36:35;;;;;;;;;;;3.10;99.90;;;;;;5073577;28;19935;-50
2021/12/15 08:39:02;;;;;;;;;;;3.00;99.90;;;;;;5074618;28;19932;-51
2021/12/15 08:41:29;;;;;;;;;;;3.10;99.90;;;;;;5073934;28;19930;-49
2021/12/15 08:43:57;;;;;;;;;;;3.20;99.90;;;;;;5074621;28;20344;-50
2021/12/15 08:46:27;;;;;;;;;;;3.20;99.90;;;;;;5074221;28;19924;-51
2021/12/15 08:48:54;;;;;;;;;;;3.10;99.90;;;;;;5074493;28;19978;-49
2021/12/15 08:51:25;;;;;;;;;;;3.10;99.90;;;;;;5073495;28;19924;-49
2021/12/15 08:53:53;;;;;;;;;;;3.20;99.90;;;;;;5074188;28;19932;-50
2021/12/15 08:56:20;;;;;;;;;;;3.20;99.90;;;;;;5074293;28;19943;-51
2021/12/15 08:58:46;;;;;;;;;;;3.10;99.90;;;;;;5074558;28;20377;-50
2021/12/15 09:01:14;;;;;;;;;;;3.20;99.90;;;;;;5073845;28;19993;-50
2021/12/15 09:03:43;;;;;;;;;;;3.30;99.90;;;;;;5074032;28;19928;-50
2021/12/15 09:06:11;;;;;;;;;;;3.40;99.90;;;;;;5074411;28;19928;-51
2021/12/15 09:08:38;;;;;;;;;;;3.40;99.90;;;;;;5074994;28;19929;-50
2021/12/15 09:11:08;;;;;;;;;;;3.40;99.90;;;;;;5073052;28;20382;-50
2021/12/15 09:13:35;;;;;;;;;;;3.20;99.90;;;;;;5073536;28;19924;-51
2021/12/15 09:16:03;;;;;;;;;;;3.10;99.90;;;;;;5072787;28;19936;-51
2021/12/15 09:18:30;;;;;;;;;;;3.20;99.90;;;;;;5074157;28;19982;-51
2021/12/15 09:21:00;;;;;;;;;;;3.30;99.90;;;;;;5073104;28;19958;-51
2021/12/15 09:23:27;;;;;;;;;;;3.30;99.90;;;;;;5073819;28;19924;-51
2021/12/15 09:25:55;;;;;;;;;;;3.30;99.90;;;;;;5074007;28;19932;-50
2021/12/15 09:28:22;;;;;;;;;;;3.30;99.90;;;;;;5073723;28;19928;-51
2021/12/15 09:30:49;;;;;;;;;;;3.40;99.90;;;;;;5073020;28;19995;-52
2021/12/15 09:33:18;;;;;;;;;;;3.30;99.90;;;;;;5073280;28;20417;-50
2021/12/15 09:35:45;;;;;;;;;;;3.30;99.90;;;;;;5073663;28;19925;-50
2021/12/15 09:38:14;;;;;;;;;;;3.40;99.90;;;;;;5073706;28;20305;-51
2021/12/15 09:40:41;;;;;;;;;;;3.50;99.90;;;;;;5073254;28;19924;-52
2021/12/15 09:43:08;;;;;;;;;;;3.70;99.90;;;;;;5072904;28;19967;-51
2021/12/15 09:45:42;;;;;;;;;;;3.60;99.90;;;;;;5073537;28;20297;-52
2021/12/15 09:57:04;;;;;;;;;;;3.90;99.90;;;;;;5072040;28;19982;-51
2021/12/15 10:02:27;;;;;;;;;;;4.00;99.90;;;;;;5071661;28;19926;-50
2021/12/15 10:05:04;;;;;;;;;;;3.80;99.90;;;;;;5073072;28;19947;-52
2021/12/15 10:18:36;;;;;;;;;;;3.60;99.90;;;;;;5072801;28;20290;-51
2021/12/15 10:21:03;;;;;;;;;;;3.60;99.90;;;;;;5072136;28;19928;-50
2021/12/15 10:23:36;;;;;;;;;;;3.50;99.90;;;;;;5072653;28;19932;-51
2021/12/15 10:26:06;;;;;;;;;;;3.60;99.90;;;;;;5072651;28;19924;-51
2021/12/15 10:28:33;;;;;;;;;;;3.60;99.90;;;;;;5072603;28;20431;-51
2021/12/15 10:31:01;;;;;;;;;;;3.40;99.90;;;;;;5071342;28;19978;-51
2021/12/15 10:33:29;;;;;;;;;;;3.40;99.90;;;;;;5055316;28;19979;-50
2021/12/15 10:35:58;;;;;;;;;;;3.60;99.90;;;;;;5056218;28;19925;-50
2021/12/15 10:38:27;;;;;;;;;;;3.80;99.90;;;;;;5071809;28;20382;-51
2021/12/15 10:41:02;;;;;;;;;;;3.50;99.90;;;;;;5072220;28;20023;-52
2021/12/15 10:43:33;;;;;;;;;;;3.60;99.90;;;;;;5071507;28;19978;-50
2021/12/15 10:46:02;;;;;;;;;;;3.70;99.90;;;;;;5072313;28;20348;-52
2021/12/15 10:48:37;;;;;;;;;;;3.70;99.90;;;;;;5071465;28;19970;-51
2021/12/15 10:51:18;;;;;;;;;;;3.70;99.90;;;;;;5063063;28;19932;-51
2021/12/15 10:53:46;;;;;;;;;;;3.80;99.90;;;;;;5052104;28;20359;-52
2021/12/15 10:56:13;;;;;;;;;;;3.60;99.90;;;;;;5067505;28;19932;-52
2021/12/15 10:58:43;;;;;;;;;;;3.60;99.90;;;;;;5071878;28;19994;-50
2021/12/15 11:01:24;;;;;;;;;;;3.70;99.90;;;;;;5070998;28;19971;-51
2021/12/15 11:03:51;;;;;;;;;;;3.90;99.90;;;;;;5071514;28;19978;-51
2021/12/15 11:06:19;;;;;;;;;;;3.90;99.90;;;;;;5071353;28;19970;-51
2021/12/15 11:08:45;;;;;;;;;;;4.00;99.90;;;;;;5071452;28;19924;-51
2021/12/15 11:11:23;;;;;;;;;;;3.90;99.90;;;;;;5071161;28;19939;-51
2021/12/15 11:13:51;;;;;;;;;;;4.00;99.90;;;;;;5071957;28;19931;-51
2021/12/15 11:16:27;;;;;;;;;;;4.00;99.90;;;;;;5071827;28;19929;-50
2021/12/15 11:18:54;;;;;;;;;;;3.90;99.90;;;;;;5071691;28;19978;-50
2021/12/15 11:21:21;;;;;;;;;;;3.70;99.90;;;;;;5071602;28;19924;-51
2021/12/15 11:23:55;;;;;;;;;;;3.40;99.90;;;;;;5071982;28;20015;-50
2021/12/15 11:26:22;;;;;;;;;;;3.30;99.90;;;;;;5072008;28;19928;-51
2021/12/15 11:28:50;;;;;;;;;;;3.40;99.90;;;;;;5071270;28;19932;-51
2021/12/15 11:31:19;;;;;;;;;;;3.30;99.90;;;;;;5070536;28;19971;-50
2021/12/15 11:33:47;;;;;;;;;;;3.30;99.90;;;;;;5070631;28;19978;-51
2021/12/15 11:36:16;;;;;;;;;;;3.30;99.90;;;;;;5071682;28;20010;-51
2021/12/15 11:38:43;;;;;;;;;;;3.50;99.90;;;;;;5072441;28;19932;-51
2021/12/15 11:41:13;;;;;;;;;;;3.60;99.90;;;;;;5063766;28;19925;-51
2021/12/15 11:43:42;;;;;;;;;;;3.70;99.90;;;;;;5055599;28;20456;-53
2021/12/15 11:46:29;;;;;;;;;;;3.80;99.90;;;;;;5055454;28;19936;-50
2021/12/15 11:48:59;;;;;;;;;;;3.70;99.90;;;;;;5052754;28;20345;-51
2021/12/15 11:51:29;;;;;;;;;;;3.60;99.90;;;;;;5075154;28;19931;-50
2021/12/15 11:53:56;;;;;;;;;;;3.80;99.90;;;;;;5058400;28;19931;-50
2021/12/15 11:56:25;;;;;;;;;;;3.80;99.90;;;;;;5055337;28;19960;-50
2021/12/15 11:58:55;;;;;;;;;;;3.80;99.90;;;;;;5058183;28;20002;-51
2021/12/15 12:01:39;;;;;;;;;;;4.00;99.90;;;;;;5074877;28;19925;-51
2021/12/15 12:04:12;;;;;;;;;;;4.00;99.90;;;;;;5074944;28;19924;-51
2021/12/15 12:06:39;;;;;;;;;;;3.80;99.90;;;;;;5075095;28;19924;-51
2021/12/15 12:09:06;;;;;;;;;;;3.80;99.90;;;;;;5074731;28;19931;-52
2021/12/15 12:11:34;;;;;;;;;;;3.90;99.90;;;;;;5074963;28;19932;-51
2021/12/15 12:14:01;;;;;;;;;;;3.80;99.90;;;;;;5075146;28;19931;-51
2021/12/15 12:16:28;;;;;;;;;;;3.60;99.90;;;;;;5074661;28;19932;-52
2021/12/15 12:18:55;;;;;;;;;;;3.70;99.90;;;;;;5074387;28;20397;-51
2021/12/15 12:21:24;;;;;;;;;;;3.80;99.90;;;;;;5074311;28;19931;-52
2021/12/15 12:23:51;;;;;;;;;;;3.70;99.90;;;;;;5074787;28;19924;-51
2021/12/15 12:26:26;;;;;;;;;;;3.70;99.90;;;;;;5074974;28;19925;-51
2021/12/15 12:28:54;;;;;;;;;;;3.80;99.90;;;;;;5074216;28;19925;-52
2021/12/15 12:31:22;;;;;;;;;;;3.70;99.90;;;;;;5054440;28;19929;-53
2021/12/15 12:33:49;;;;;;;;;;;3.70;99.90;;;;;;5053377;28;19983;-53
2021/12/15 12:36:17;;;;;;;;;;;3.70;99.90;;;;;;5054746;28;19929;-51
2021/12/15 12:38:48;;;;;;;;;;;3.70;99.90;;;;;;5069547;28;19974;-51
2021/12/15 12:41:16;;;;;;;;;;;3.70;99.90;;;;;;5074382;28;20390;-51
2021/12/15 12:43:47;;;;;;;;;;;3.80;99.90;;;;;;5074825;28;20121;-50
2021/12/15 12:46:21;;;;;;;;;;;3.90;99.90;;;;;;5074602;28;19929;-50
2021/12/15 12:49:15;;;;;;;;;;;4.00;99.90;;;;;;5074243;28;19967;-51
2021/12/15 13:00:06;;;;;;;;;;;3.90;99.90;;;;;;5074573;28;19931;-51
2021/12/15 13:02:48;;;;;;;;;;;4.00;99.90;;;;;;5073876;28;19924;-52
2021/12/15 13:05:38;;;;;;;;;;;4.00;99.90;;;;;;5073804;28;20023;-53
2021/12/15 13:08:07;;;;;;;;;;;4.00;99.90;;;;;;5059663;28;20341;-51
2021/12/15 13:10:58;;;;;;;;;;;3.90;99.90;;;;;;5073856;28;19928;-50
2021/12/15 13:13:27;;;;;;;;;;;3.80;99.90;;;;;;5048832;28;19961;-50
2021/12/15 13:15:58;;;;;;;;;;;3.80;99.90;;;;;;5074080;28;19935;-50
2021/12/15 13:18:25;;;;;;;;;;;3.60;99.90;;;;;;5074259;28;19947;-51
2021/12/15 13:21:00;;;;;;;;;;;3.40;99.90;;;;;;5073586;28;19925;-49
2021/12/15 13:23:39;;;;;;;;;;;3.30;99.90;;;;;;5073981;28;19925;-51
2021/12/15 13:28:54;;;;;;;;;;;3.30;99.90;;;;;;5054048;28;20306;-51
2021/12/15 13:31:24;;;;;;;;;;;3.50;99.90;;;;;;5071486;28;20390;-51
2021/12/15 13:33:52;;;;;;;;;;;3.50;99.90;;;;;;5073536;28;19924;-50
2021/12/15 13:36:20;;;;;;;;;;;3.40;99.90;;;;;;5073733;28;19970;-50
2021/12/15 13:38:49;;;;;;;;;;;3.40;99.90;;;;;;5073598;28;19950;-51
2021/12/15 13:41:37;;;;;;;;;;;3.40;99.90;;;;;;5073053;28;19924;-50
2021/12/15 13:44:07;;;;;;;;;;;3.40;99.90;;;;;;5073612;28;20383;-52
2021/12/15 13:46:39;;;;;;;;;;;3.70;99.90;;;;;;5073620;28;20005;-52
2021/12/15 13:49:22;;;;;;;;;;;3.60;99.90;;;;;;5073433;28;19924;-50
2021/12/15 13:51:52;;;;;;;;;;;3.40;99.90;;;;;;5036945;28;20019;-51
2021/12/15 13:54:23;;;;;;;;;;;3.60;99.90;;;;;;5053808;28;19924;-51
2021/12/15 13:56:51;;;;;;;;;;;3.60;99.90;;;;;;5053355;28;20410;-53
2021/12/15 13:59:28;;;;;;;;;;;3.70;99.90;;;;;;5053754;28;19971;-51
2021/12/15 14:02:10;;;;;;;;;;;3.60;99.90;;;;;;5062062;28;19946;-50
2021/12/15 14:04:43;;;;;;;;;;;3.50;99.90;;;;;;5073862;28;20039;-52
2021/12/15 14:07:28;;;;;;;;;;;3.60;99.90;;;;;;5072972;28;19954;-50
2021/12/15 14:09:55;;;;;;;;;;;3.30;99.90;;;;;;5074266;28;19929;-52
2021/12/15 14:12:37;;;;;;;;;;;3.50;99.90;;;;;;5072368;28;20397;-51
2021/12/15 14:15:05;;;;;;;;;;;3.30;99.90;;;;;;5072170;28;19925;-50
2021/12/15 14:17:32;;;;;;;;;;;3.40;99.90;;;;;;5071732;28;19924;-51
2021/12/15 14:19:58;;;;;;;;;;;3.30;99.90;;;;;;5061304;28;19924;-51
2021/12/15 14:22:25;;;;;;;;;;;3.30;99.90;;;;;;5072500;28;19981;-52
2021/12/15 14:24:54;;;;;;;;;;;3.20;99.90;;;;;;5072951;28;19986;-51
2021/12/15 14:27:22;;;;;;;;;;;3.10;99.90;;;;;;5072953;28;19924;-52
2021/12/15 14:29:50;;;;;;;;;;;3.20;99.90;;;;;;5072589;28;19932;-50
2021/12/15 14:32:18;;;;;;;;;;;3.20;99.90;;;;;;5072512;28;20623;-50
2021/12/15 14:34:46;;;;;;;;;;;3.20;99.90;;;;;;5072628;28;19935;-50
2021/12/15 14:37:13;;;;;;;;;;;3.20;99.90;;;;;;5072507;28;19970;-51
2021/12/15 14:39:41;;;;;;;;;;;3.10;99.90;;;;;;5072101;28;19978;-52
2021/12/15 14:42:09;;;;;;;;;;;3.20;99.90;;;;;;5072220;28;20394;-51
2021/12/15 14:44:38;;;;;;;;;;;3.10;99.90;;;;;;5072337;28;19925;-51
2021/12/15 14:47:06;;;;;;;;;;;3.20;99.90;;;;;;5072146;28;19935;-50
2021/12/15 14:49:35;;;;;;;;;;;3.00;99.90;;;;;;5069702;28;19928;-51
2021/12/15 14:52:06;;;;;;;;;;;3.00;99.90;;;;;;5071865;28;19924;-51
2021/12/15 14:54:33;;;;;;;;;;;3.00;99.90;;;;;;5071978;28;20038;-51
2021/12/15 14:57:01;;;;;;;;;;;3.10;99.90;;;;;;5072434;28;19924;-53
2021/12/15 14:59:29;;;;;;;;;;;3.00;99.90;;;;;;5071783;28;19928;-51
2021/12/15 15:01:57;;;;;;;;;;;2.80;99.90;;;;;;5071204;28;19925;-52
2021/12/15 15:04:26;;;;;;;;;;;2.90;99.90;;;;;;5072206;28;19925;-51
2021/12/15 15:06:57;;;;;;;;;;;3.00;99.90;;;;;;5071837;28;19931;-51
2021/12/15 15:09:26;;;;;;;;;;;2.90;99.90;;;;;;5071425;28;19924;-52
2021/12/15 15:11:59;;;;;;;;;;;2.90;99.90;;;;;;5071056;28;19925;-51
2021/12/15 15:14:31;;;;;;;;;;;2.80;99.90;;;;;;5062453;28;20558;-51
2021/12/15 15:16:58;;;;;;;;;;;2.90;99.90;;;;;;5072352;28;19925;-50
2021/12/15 15:19:25;;;;;;;;;;;2.80;99.90;;;;;;5071905;28;19924;-51
2021/12/15 15:21:53;;;;;;;;;;;2.70;99.90;;;;;;5071526;28;19928;-51
2021/12/15 15:24:25;;;;;;;;;;;2.70;99.90;;;;;;5071664;28;19978;-51
2021/12/15 15:26:55;;;;;;;;;;;2.80;99.90;;;;;;5071972;28;19924;-51
2021/12/15 15:29:29;;;;;;;;;;;2.90;99.90;;;;;;5071583;28;19928;-52
2021/12/15 15:31:55;;;;;;;;;;;2.90;99.90;;;;;;5070902;28;19929;-51
2021/12/15 15:34:25;;;;;;;;;;;3.00;99.90;;;;;;5071816;28;19929;-50
2021/12/15 15:36:52;;;;;;;;;;;2.90;99.90;;;;;;5071918;28;19924;-50
2021/12/15 15:39:19;;;;;;;;;;;2.80;99.90;;;;;;5070944;28;19925;-51
2021/12/15 15:41:48;;;;;;;;;;;2.80;99.90;;;;;;5063913;28;19929;-51
2021/12/15 15:44:15;;;;;;;;;;;3.00;99.90;;;;;;5051877;28;19971;-53
2021/12/15 15:46:42;;;;;;;;;;;2.90;99.90;;;;;;5066295;28;19986;-50
2021/12/15 15:49:10;;;;;;;;;;;3.00;99.90;;;;;;5070871;28;20443;-51
2021/12/15 15:51:38;;;;;;;;;;;2.80;99.90;;;;;;5066519;28;20398;-50